Darstellungsparameter: Aktuell verwendete Einstellungen:
Skalierung der Graphiken ... ?
xyx+y,   Skalierungsfaktor:      Skalierung: Modus: x, Faktor: 1
Darstellungszeitraum ... ?
Vom - - bis: - -   Zeitraum: 12.10.2015 - 13.10.2015
Min/Max/Avg-Anzeige ... ?
Zeige MMA aktuell
Zeige MMA Monat
Zeige MMA alles
Zeige --A aktuell
Zeige --A Monat
Zeige --A alles
Keine MMA-Anzeige
MMA:
Average (ber die Originaldaten)
MMA-Basis: 12.10.2015 - 13.10.2015
Quicknavigation für Darstellung... ?
Tage:      1T, 2T, 3T, 5T -1T -2T -3T -5T +1T +2T +3T +5T
Wochen: 1W, 2W, 3W -1W -2W -3W +1W +2W +3W
Monate: 1M, 3M, 6M -1M -3M -6M +1M +3M +6M
Jahre:    1J, 3J, 5J, 10J -1J -3J -5J -10J +1J +3J +5J +10J
Nutze für die Darstellung ... ?
Originaldaten oder Mittelwerte auf ...
Stundenbasis Tagesbasis Wochenbasis
Monatsbasis Jahresbasis      Datenbasis: Original-Daten
Darstellen als:
Statistik (Auto) Statistik J:M      Darstellung:
Zur Graphik,    zurück zur Übersicht aller Sensoren.
 
Tabellarische Datenbersicht: ?
 
Sensor: Nr:Datum:Temp:Abs-Feuchte:Windchill:Wind:
Aussen-T/F 1 12-10-2015 00:00:00 4.6 C 5.56 g/m*3 4.6 C 0 km/h
2 12-10-2015 00:05:00 4.6 C 5.56 g/m*3 4.6 C 0 km/h
3 12-10-2015 00:10:00 4.5 C 5.52 g/m*3 4.5 C 0 km/h
4 12-10-2015 00:15:00 4.5 C 5.52 g/m*3 4.5 C 0 km/h
5 12-10-2015 00:20:00 4.4 C 5.48 g/m*3 4.4 C 0 km/h
6 12-10-2015 00:25:00 4.4 C 5.48 g/m*3 4.4 C 0 km/h
7 12-10-2015 00:30:00 4.4 C 5.48 g/m*3 4.4 C 0 km/h
8 12-10-2015 00:35:00 4.3 C 5.51 g/m*3 4.3 C 0 km/h
9 12-10-2015 00:40:00 4.3 C 5.45 g/m*3 4.3 C 0 km/h
10 12-10-2015 00:45:00 4.2 C 5.41 g/m*3 4.2 C 0 km/h
11 12-10-2015 00:50:00 4.2 C 5.48 g/m*3 4.2 C 0 km/h
12 12-10-2015 00:55:00 4.1 C 5.44 g/m*3 4.1 C 0 km/h
13 12-10-2015 01:00:00 4.1 C 5.44 g/m*3 4.1 C 0 km/h
14 12-10-2015 01:05:00 4.1 C 5.44 g/m*3 4.1 C 0 km/h
15 12-10-2015 01:10:00 4 C 5.4 g/m*3 4 C 0 km/h
16 12-10-2015 01:15:00 3.9 C 5.37 g/m*3 3.9 C 0 km/h
17 12-10-2015 01:20:00 3.8 C 5.33 g/m*3 3.8 C 0 km/h
18 12-10-2015 01:25:00 3.8 C 5.33 g/m*3 3.8 C 0 km/h
19 12-10-2015 01:30:00 3.8 C 5.33 g/m*3 3.8 C 0 km/h
20 12-10-2015 01:35:00 3.8 C 5.27 g/m*3 3.8 C 0 km/h
21 12-10-2015 01:40:00 3.8 C 5.27 g/m*3 3.8 C 0 km/h
22 12-10-2015 01:45:00 3.9 C 5.24 g/m*3 3.9 C 1.6 km/h
23 12-10-2015 01:50:00 4 C 5.28 g/m*3 4 C 4.8 km/h
24 12-10-2015 01:55:00 4.1 C 5.25 g/m*3 4.1 C 4.8 km/h
25 12-10-2015 02:00:00 4.4 C 5.22 g/m*3 4.4 C 4.8 km/h
Sensor: Nr:Datum:Temp:Abs-Feuchte:Windchill:Wind:
Aussen-T/F 26 12-10-2015 02:05:00 4.7 C 5.26 g/m*3 4.7 C 3.2 km/h
27 12-10-2015 02:10:00 4.8 C 5.23 g/m*3 2.49 C 9.7 km/h
28 12-10-2015 02:15:00 4.9 C 5.27 g/m*3 4.9 C 4.8 km/h
29 12-10-2015 02:20:00 4.9 C 5.27 g/m*3 3.48 C 6.4 km/h
30 12-10-2015 02:25:00 4.7 C 5.33 g/m*3 4.7 C 0 km/h
31 12-10-2015 02:30:00 4.3 C 5.32 g/m*3 4.3 C 0 km/h
32 12-10-2015 02:35:00 4.1 C 5.31 g/m*3 4.1 C 0 km/h
33 12-10-2015 02:40:00 3.9 C 5.31 g/m*3 3.9 C 0 km/h
34 12-10-2015 02:45:00 3.8 C 5.27 g/m*3 3.8 C 0 km/h
35 12-10-2015 02:50:00 3.6 C 5.26 g/m*3 3.6 C 0 km/h
36 12-10-2015 02:55:00 3.5 C 5.23 g/m*3 3.5 C 0 km/h
37 12-10-2015 03:00:00 3.4 C 5.19 g/m*3 3.4 C 0 km/h
38 12-10-2015 03:05:00 3.3 C 5.16 g/m*3 3.3 C 0 km/h
39 12-10-2015 03:10:00 3.2 C 5.18 g/m*3 3.2 C 1.6 km/h
40 12-10-2015 03:15:00 3.2 C 5.18 g/m*3 3.2 C 0 km/h
41 12-10-2015 03:20:00 3.2 C 5.18 g/m*3 3.2 C 0 km/h
42 12-10-2015 03:25:00 3.1 C 5.15 g/m*3 3.1 C 0 km/h
43 12-10-2015 03:30:00 3.1 C 5.21 g/m*3 3.1 C 0 km/h
44 12-10-2015 03:35:00 3 C 5.17 g/m*3 3 C 0 km/h
45 12-10-2015 03:40:00 3 C 5.17 g/m*3 3 C 0 km/h
46 12-10-2015 03:45:00 2.9 C 5.14 g/m*3 2.9 C 0 km/h
47 12-10-2015 03:50:00 2.9 C 5.14 g/m*3 2.9 C 0 km/h
48 12-10-2015 03:55:00 2.9 C 5.14 g/m*3 2.9 C 0 km/h
49 12-10-2015 04:00:00 2.9 C 5.14 g/m*3 2.9 C 0 km/h
50 12-10-2015 04:05:00 2.9 C 5.14 g/m*3 2.9 C 0 km/h
Sensor: Nr:Datum:Temp:Abs-Feuchte:Windchill:Wind:
Aussen-T/F 51 12-10-2015 04:10:00 2.9 C 5.14 g/m*3 2.9 C 0 km/h
52 12-10-2015 04:15:00 2.8 C 5.1 g/m*3 2.8 C 0 km/h
53 12-10-2015 04:20:00 2.8 C 5.1 g/m*3 2.8 C 0 km/h
54 12-10-2015 04:25:00 2.7 C 5.07 g/m*3 2.7 C 0 km/h
55 12-10-2015 04:30:00 2.7 C 5.13 g/m*3 2.7 C 0 km/h
56 12-10-2015 04:35:00 2.7 C 5.13 g/m*3 2.7 C 0 km/h
57 12-10-2015 04:40:00 2.6 C 5.09 g/m*3 2.6 C 0 km/h
58 12-10-2015 04:45:00 2.6 C 5.09 g/m*3 2.6 C 0 km/h
59 12-10-2015 04:50:00 2.6 C 5.09 g/m*3 2.6 C 0 km/h
60 12-10-2015 04:55:00 2.6 C 5.09 g/m*3 2.6 C 1.6 km/h
61 12-10-2015 05:00:00 2.5 C 5 g/m*3 2.5 C 0 km/h
62 12-10-2015 05:05:00 2.4 C 5.02 g/m*3 2.4 C 0 km/h
63 12-10-2015 05:10:00 2.3 C 4.99 g/m*3 2.3 C 0 km/h
64 12-10-2015 05:15:00 2.2 C 4.96 g/m*3 2.2 C 0 km/h
65 12-10-2015 05:20:00 2.2 C 4.96 g/m*3 2.2 C 0 km/h
66 12-10-2015 05:25:00 2.1 C 4.92 g/m*3 2.1 C 0 km/h
67 12-10-2015 05:30:00 2.1 C 4.92 g/m*3 2.1 C 0 km/h
68 12-10-2015 05:35:00 2.1 C 4.98 g/m*3 2.1 C 0 km/h
69 12-10-2015 05:40:00 2 C 4.95 g/m*3 2 C 0 km/h
70 12-10-2015 05:45:00 1.9 C 4.91 g/m*3 1.9 C 0 km/h
71 12-10-2015 05:50:00 1.9 C 4.91 g/m*3 1.9 C 0 km/h
72 12-10-2015 05:55:00 1.8 C 4.88 g/m*3 1.8 C 0 km/h
73 12-10-2015 06:00:00 1.8 C 4.88 g/m*3 1.8 C 0 km/h
74 12-10-2015 06:05:00 1.8 C 4.93 g/m*3 1.8 C 0 km/h
75 12-10-2015 06:10:00 1.8 C 4.93 g/m*3 1.8 C 0 km/h
Sensor: Nr:Datum:Temp:Abs-Feuchte:Windchill:Wind:
Aussen-T/F 76 12-10-2015 06:15:00 1.8 C 4.93 g/m*3 1.8 C 0 km/h
77 12-10-2015 06:20:00 1.7 C 4.9 g/m*3 1.7 C 0 km/h
78 12-10-2015 06:25:00 1.7 C 4.9 g/m*3 1.7 C 0 km/h
79 12-10-2015 06:30:00 1.6 C 4.81 g/m*3 1.6 C 0 km/h
80 12-10-2015 06:35:00 1.6 C 4.81 g/m*3 1.6 C 0 km/h
81 12-10-2015 06:40:00 1.6 C 4.87 g/m*3 1.6 C 0 km/h
82 12-10-2015 06:45:00 1.5 C 4.83 g/m*3 1.5 C 0 km/h
83 12-10-2015 06:50:00 1.4 C 4.8 g/m*3 1.4 C 0 km/h
84 12-10-2015 06:55:00 1.4 C 4.8 g/m*3 1.4 C 0 km/h
85 12-10-2015 07:00:00 1.4 C 4.8 g/m*3 1.4 C 0 km/h
86 12-10-2015 07:05:00 1.3 C 4.77 g/m*3 1.3 C 0 km/h
87 12-10-2015 07:10:00 1.3 C 4.77 g/m*3 1.3 C 0 km/h
88 12-10-2015 07:15:00 1.3 C 4.82 g/m*3 1.3 C 0 km/h
89 12-10-2015 07:20:00 1.3 C 4.82 g/m*3 1.3 C 0 km/h
90 12-10-2015 07:25:00 1.3 C 4.82 g/m*3 1.3 C 0 km/h
91 12-10-2015 07:30:00 1.2 C 4.79 g/m*3 1.2 C 0 km/h
92 12-10-2015 07:35:00 1.2 C 4.79 g/m*3 1.2 C 0 km/h
93 12-10-2015 07:40:00 1.2 C 4.79 g/m*3 1.2 C 0 km/h
94 12-10-2015 07:45:00 1.2 C 4.79 g/m*3 1.2 C 0 km/h
95 12-10-2015 07:50:00 1.1 C 4.76 g/m*3 1.1 C 0 km/h
96 12-10-2015 07:55:00 1.1 C 4.76 g/m*3 1.1 C 0 km/h
97 12-10-2015 08:00:00 1.1 C 4.76 g/m*3 1.1 C 0 km/h
98 12-10-2015 08:05:00 1.1 C 4.76 g/m*3 1.1 C 0 km/h
99 12-10-2015 08:10:00 1.1 C 4.81 g/m*3 1.1 C 0 km/h
100 12-10-2015 08:15:00 1.1 C 4.81 g/m*3 1.1 C 0 km/h
Sensor: Nr:Datum:Temp:Abs-Feuchte:Windchill:Wind:
Aussen-T/F 101 12-10-2015 08:20:00 1.2 C 4.84 g/m*3 1.2 C 0 km/h
102 12-10-2015 08:25:00 1.2 C 4.84 g/m*3 1.2 C 0 km/h
103 12-10-2015 08:30:00 1.3 C 4.87 g/m*3 1.3 C 0 km/h
104 12-10-2015 08:35:00 1.4 C 4.91 g/m*3 1.4 C 0 km/h
105 12-10-2015 08:40:00 1.5 C 4.94 g/m*3 1.5 C 0 km/h
106 12-10-2015 08:45:00 1.6 C 4.97 g/m*3 1.6 C 0 km/h
107 12-10-2015 08:50:00 1.7 C 4.95 g/m*3 1.7 C 0 km/h
108 12-10-2015 08:55:00 1.8 C 4.99 g/m*3 1.8 C 0 km/h
109 12-10-2015 09:00:00 1.9 C 5.02 g/m*3 1.9 C 0 km/h
110 12-10-2015 09:05:00 2 C 5.06 g/m*3 2 C 0 km/h
111 12-10-2015 09:10:00 2.1 C 5.04 g/m*3 2.1 C 0 km/h
112 12-10-2015 09:15:00 2.3 C 5.05 g/m*3 2.3 C 0 km/h
113 12-10-2015 09:20:00 2.3 C 5.05 g/m*3 2.3 C 0 km/h
114 12-10-2015 09:25:00 2.4 C 5.08 g/m*3 2.4 C 0 km/h
115 12-10-2015 09:30:00 2.4 C 5.02 g/m*3 2.4 C 0 km/h
116 12-10-2015 09:35:00 2.4 C 5.02 g/m*3 2.4 C 0 km/h
117 12-10-2015 09:40:00 2.4 C 5.02 g/m*3 2.4 C 0 km/h
118 12-10-2015 09:45:00 2.4 C 5.02 g/m*3 2.4 C 0 km/h
119 12-10-2015 09:50:00 2.4 C 5.02 g/m*3 2.4 C 0 km/h
120 12-10-2015 09:55:00 2.4 C 5.02 g/m*3 2.4 C 0 km/h
121 12-10-2015 10:00:00 2.5 C 5.06 g/m*3 2.5 C 0 km/h
122 12-10-2015 10:05:00 2.6 C 5.15 g/m*3 2.6 C 0 km/h
123 12-10-2015 10:10:00 2.6 C 5.09 g/m*3 2.6 C 0 km/h
124 12-10-2015 10:15:00 2.6 C 5.09 g/m*3 2.6 C 0 km/h
125 12-10-2015 10:20:00 2.7 C 5.13 g/m*3 2.7 C 0 km/h
Sensor: Nr:Datum:Temp:Abs-Feuchte:Windchill:Wind:
Aussen-T/F 126 12-10-2015 10:25:00 2.7 C 5.13 g/m*3 2.7 C 0 km/h
127 12-10-2015 10:30:00 2.8 C 5.16 g/m*3 2.8 C 0 km/h
128 12-10-2015 10:35:00 2.9 C 5.2 g/m*3 2.9 C 0 km/h
129 12-10-2015 10:40:00 3.1 C 5.27 g/m*3 3.1 C 0 km/h
130 12-10-2015 10:45:00 3.2 C 5.3 g/m*3 3.2 C 3.2 km/h
131 12-10-2015 10:50:00 3.4 C 5.31 g/m*3 3.4 C 0 km/h
132 12-10-2015 10:55:00 3.6 C 5.2 g/m*3 3.6 C 1.6 km/h
133 12-10-2015 11:00:00 3.8 C 5.27 g/m*3 3.8 C 0 km/h
134 12-10-2015 11:05:00 4.1 C 5.25 g/m*3 4.1 C 4.8 km/h
135 12-10-2015 11:10:00 4.3 C 5.12 g/m*3 2.78 C 6.4 km/h
136 12-10-2015 11:15:00 4.6 C 5.23 g/m*3 4.6 C 1.6 km/h
137 12-10-2015 11:20:00 4.8 C 5.23 g/m*3 3.36 C 6.4 km/h
138 12-10-2015 11:25:00 5 C 5.23 g/m*3 5 C 1.6 km/h
139 12-10-2015 11:30:00 5.2 C 5.44 g/m*3 5.2 C 1.6 km/h
140 12-10-2015 11:35:00 5.3 C 5.41 g/m*3 5.3 C 0 km/h
141 12-10-2015 11:40:00 5.4 C 5.44 g/m*3 5.4 C 1.6 km/h
142 12-10-2015 11:45:00 5.5 C 5.48 g/m*3 5.5 C 1.6 km/h
143 12-10-2015 11:50:00 5.7 C 5.48 g/m*3 5.7 C 1.6 km/h
144 12-10-2015 11:55:00 5.8 C 5.52 g/m*3 5.8 C 0 km/h
145 12-10-2015 12:00:00 5.9 C 5.48 g/m*3 5.9 C 0 km/h
146 12-10-2015 12:05:00 6.1 C 5.55 g/m*3 6.1 C 0 km/h
147 12-10-2015 12:10:00 6.2 C 5.96 g/m*3 6.2 C 1.6 km/h
148 12-10-2015 12:15:00 6.2 C 5.88 g/m*3 6.2 C 0 km/h
149 12-10-2015 12:20:00 6.2 C 6.03 g/m*3 6.2 C 0 km/h
150 12-10-2015 12:25:00 6.2 C 6.1 g/m*3 6.2 C 0 km/h
Sensor: Nr:Datum:Temp:Abs-Feuchte:Windchill:Wind:
Aussen-T/F 151 12-10-2015 12:30:00 6.3 C 6.07 g/m*3 6.3 C 0 km/h
152 12-10-2015 12:35:00 6.4 C 6.18 g/m*3 6.4 C 0 km/h
153 12-10-2015 12:40:00 6.5 C 6.15 g/m*3 6.5 C 0 km/h
154 12-10-2015 12:45:00 6.6 C 5.89 g/m*3 6.6 C 0 km/h
155 12-10-2015 12:50:00 6.8 C 6.04 g/m*3 6.8 C 1.6 km/h
156 12-10-2015 12:55:00 7 C 6.04 g/m*3 7 C 0 km/h
157 12-10-2015 13:00:00 7.2 C 6.12 g/m*3 7.2 C 4.8 km/h
158 12-10-2015 13:05:00 7.4 C 6.04 g/m*3 7.4 C 3.2 km/h
159 12-10-2015 13:10:00 7.8 C 6.45 g/m*3 7.8 C 1.6 km/h
160 12-10-2015 13:15:00 8.1 C 6.07 g/m*3 8.1 C 3.2 km/h
161 12-10-2015 13:20:00 8.4 C 6.28 g/m*3 8.4 C 0 km/h
162 12-10-2015 13:25:00 8.7 C 6.14 g/m*3 8.7 C 1.6 km/h
163 12-10-2015 13:30:00 9 C 6.26 g/m*3 9 C 3.2 km/h
164 12-10-2015 13:35:00 9.3 C 6.38 g/m*3 9.3 C 1.6 km/h
165 12-10-2015 13:40:00 9.4 C 6.69 g/m*3 9.4 C 1.6 km/h
166 12-10-2015 13:45:00 9.5 C 6.83 g/m*3 9.5 C 1.6 km/h
167 12-10-2015 13:50:00 9.6 C 6.32 g/m*3 8.91 C 6.4 km/h
168 12-10-2015 13:55:00 9.6 C 6.41 g/m*3 9.6 C 3.2 km/h
169 12-10-2015 14:00:00 9.7 C 6.18 g/m*3 9.02 C 6.4 km/h
170 12-10-2015 14:05:00 9.7 C 6.18 g/m*3 9.7 C 4.8 km/h
171 12-10-2015 14:10:00 9.8 C 6.68 g/m*3 9.8 C 1.6 km/h
172 12-10-2015 14:15:00 9.8 C 6.31 g/m*3 9.8 C 4.8 km/h
173 12-10-2015 14:20:00 9.8 C 6.31 g/m*3 9.8 C 1.6 km/h
174 12-10-2015 14:25:00 9.8 C 6.49 g/m*3 9.8 C 3.2 km/h
175 12-10-2015 14:30:00 9.8 C 6.22 g/m*3 9.8 C 1.6 km/h
Sensor: Nr:Datum:Temp:Abs-Feuchte:Windchill:Wind:
Aussen-T/F 176 12-10-2015 14:35:00 9.9 C 6.16 g/m*3 9.9 C 3.2 km/h
177 12-10-2015 14:40:00 10 C 6.39 g/m*3 10 C 3.2 km/h
178 12-10-2015 14:45:00 10.1 C 6.81 g/m*3 10.1 C 1.6 km/h
179 12-10-2015 14:50:00 10.1 C 6.81 g/m*3 10.1 C 0 km/h
180 12-10-2015 14:55:00 10.1 C 6.81 g/m*3 10.1 C 1.6 km/h
181 12-10-2015 15:00:00 10.1 C 7.09 g/m*3 10.1 C 0 km/h
182 12-10-2015 15:05:00 10.1 C 6.52 g/m*3 10.1 C 1.6 km/h
183 12-10-2015 15:10:00 10.3 C 6.61 g/m*3 10.3 C 0 km/h
184 12-10-2015 15:15:00 10.4 C 6.84 g/m*3 10.4 C 3.2 km/h
185 12-10-2015 15:20:00 10.5 C 6.79 g/m*3 10.5 C 3.2 km/h
186 12-10-2015 15:25:00 10.7 C 6.58 g/m*3 10.7 C 3.2 km/h
187 12-10-2015 15:30:00 10.8 C 6.82 g/m*3 10.8 C 1.6 km/h
188 12-10-2015 15:35:00 10.9 C 6.56 g/m*3 10.9 C 4.8 km/h
189 12-10-2015 15:40:00 11.1 C 6.55 g/m*3 11.1 C 4.8 km/h
190 12-10-2015 15:45:00 11.2 C 7.3 g/m*3 11.2 C 0 km/h
191 12-10-2015 15:50:00 11.1 C 7.15 g/m*3 11.1 C 1.6 km/h
192 12-10-2015 15:55:00 11 C 6.61 g/m*3 11 C 3.2 km/h
193 12-10-2015 16:00:00 11.2 C 6.79 g/m*3 11.2 C 3.2 km/h
194 12-10-2015 16:05:00 11.3 C 6.73 g/m*3 11.3 C 9.7 km/h
195 12-10-2015 16:10:00 11.3 C 6.63 g/m*3 11.3 C 3.2 km/h
196 12-10-2015 16:15:00 11.4 C 6.67 g/m*3 11.4 C 0 km/h
197 12-10-2015 16:20:00 11.5 C 6.92 g/m*3 11.5 C 4.8 km/h
198 12-10-2015 16:25:00 11.6 C 6.86 g/m*3 11.6 C 1.6 km/h
199 12-10-2015 16:30:00 11.5 C 6.82 g/m*3 11.5 C 3.2 km/h
200 12-10-2015 16:35:00 11.5 C 6.61 g/m*3 11.5 C 0 km/h
Sensor: Nr:Datum:Temp:Abs-Feuchte:Windchill:Wind:
Aussen-T/F 201 12-10-2015 16:40:00 11.4 C 7.08 g/m*3 11.4 C 0 km/h
202 12-10-2015 16:45:00 11.3 C 7.14 g/m*3 11.3 C 0 km/h
203 12-10-2015 16:50:00 11.1 C 7.45 g/m*3 11.1 C 0 km/h
204 12-10-2015 16:55:00 10.9 C 7.46 g/m*3 10.9 C 0 km/h
205 12-10-2015 17:00:00 10.7 C 7.56 g/m*3 10.7 C 0 km/h
206 12-10-2015 17:05:00 10.5 C 7.57 g/m*3 10.5 C 0 km/h
207 12-10-2015 17:10:00 10.3 C 7.57 g/m*3 10.3 C 0 km/h
208 12-10-2015 17:15:00 10.2 C 7.71 g/m*3 10.2 C 0 km/h
209 12-10-2015 17:20:00 10.1 C 7.56 g/m*3 10.1 C 0 km/h
210 12-10-2015 17:25:00 9.9 C 7.56 g/m*3 9.9 C 0 km/h
211 12-10-2015 17:30:00 9.8 C 7.52 g/m*3 9.8 C 0 km/h
212 12-10-2015 17:35:00 9.6 C 7.42 g/m*3 9.6 C 0 km/h
213 12-10-2015 17:40:00 9.4 C 7.24 g/m*3 9.4 C 0 km/h
214 12-10-2015 17:45:00 9.3 C 7.37 g/m*3 9.3 C 0 km/h
215 12-10-2015 17:50:00 9.2 C 7.32 g/m*3 9.2 C 0 km/h
216 12-10-2015 17:55:00 9 C 7.23 g/m*3 9 C 0 km/h
217 12-10-2015 18:00:00 8.9 C 7.18 g/m*3 8.9 C 0 km/h
218 12-10-2015 18:05:00 8.8 C 6.96 g/m*3 8.8 C 0 km/h
219 12-10-2015 18:10:00 8.7 C 6.92 g/m*3 8.7 C 0 km/h
220 12-10-2015 18:15:00 8.6 C 6.87 g/m*3 8.6 C 0 km/h
221 12-10-2015 18:20:00 8.4 C 6.79 g/m*3 8.4 C 0 km/h
222 12-10-2015 18:25:00 8.3 C 6.74 g/m*3 8.3 C 0 km/h
223 12-10-2015 18:30:00 8.1 C 6.66 g/m*3 8.1 C 0 km/h
224 12-10-2015 18:35:00 8 C 6.78 g/m*3 8 C 1.6 km/h
225 12-10-2015 18:40:00 7.8 C 6.69 g/m*3 7.8 C 0 km/h
Sensor: Nr:Datum:Temp:Abs-Feuchte:Windchill:Wind:
Aussen-T/F 226 12-10-2015 18:45:00 7.7 C 6.73 g/m*3 7.7 C 0 km/h
227 12-10-2015 18:50:00 7.6 C 6.61 g/m*3 7.6 C 0 km/h
228 12-10-2015 18:55:00 7.4 C 6.52 g/m*3 7.4 C 0 km/h
229 12-10-2015 19:00:00 7.3 C 6.48 g/m*3 7.3 C 0 km/h
230 12-10-2015 19:05:00 7.3 C 6.56 g/m*3 7.3 C 0 km/h
231 12-10-2015 19:10:00 7.2 C 6.52 g/m*3 7.2 C 0 km/h
232 12-10-2015 19:15:00 7.1 C 6.4 g/m*3 7.1 C 0 km/h
233 12-10-2015 19:20:00 7.1 C 6.47 g/m*3 7.1 C 0 km/h
234 12-10-2015 19:25:00 7 C 6.43 g/m*3 7 C 0 km/h
235 12-10-2015 19:30:00 6.9 C 6.31 g/m*3 6.9 C 0 km/h
236 12-10-2015 19:35:00 6.9 C 6.39 g/m*3 6.9 C 0 km/h
237 12-10-2015 19:40:00 6.9 C 6.31 g/m*3 6.9 C 0 km/h
238 12-10-2015 19:45:00 6.8 C 6.27 g/m*3 6.8 C 0 km/h
239 12-10-2015 19:50:00 6.8 C 6.19 g/m*3 6.8 C 0 km/h
240 12-10-2015 19:55:00 6.9 C 6.16 g/m*3 6.9 C 0 km/h
241 12-10-2015 20:00:00 6.8 C 6.19 g/m*3 6.8 C 0 km/h
242 12-10-2015 20:05:00 6.8 C 6.19 g/m*3 6.8 C 0 km/h
243 12-10-2015 20:10:00 6.8 C 6.19 g/m*3 6.8 C 0 km/h
244 12-10-2015 20:15:00 6.7 C 6.15 g/m*3 6.7 C 0 km/h
245 12-10-2015 20:20:00 6.7 C 6.15 g/m*3 6.7 C 0 km/h
246 12-10-2015 20:25:00 6.6 C 6.19 g/m*3 6.6 C 0 km/h
247 12-10-2015 20:30:00 6.6 C 6.19 g/m*3 6.6 C 0 km/h
248 12-10-2015 20:35:00 6.5 C 6.15 g/m*3 6.5 C 0 km/h
249 12-10-2015 20:40:00 6.4 C 6.11 g/m*3 6.4 C 0 km/h
250 12-10-2015 20:45:00 6.3 C 6.07 g/m*3 6.3 C 0 km/h
Sensor: Nr:Datum:Temp:Abs-Feuchte:Windchill:Wind:
Aussen-T/F 251 12-10-2015 20:50:00 6.2 C 6.03 g/m*3 6.2 C 0 km/h
252 12-10-2015 20:55:00 6.1 C 5.92 g/m*3 6.1 C 0 km/h
253 12-10-2015 21:00:00 5.9 C 5.91 g/m*3 5.9 C 0 km/h
254 12-10-2015 21:05:00 5.8 C 5.87 g/m*3 5.8 C 0 km/h
255 12-10-2015 21:10:00 5.7 C 5.91 g/m*3 5.7 C 0 km/h
256 12-10-2015 21:15:00 5.6 C 5.87 g/m*3 5.6 C 1.6 km/h
257 12-10-2015 21:20:00 5.6 C 5.87 g/m*3 5.6 C 1.6 km/h
258 12-10-2015 21:25:00 5.5 C 5.83 g/m*3 5.5 C 1.6 km/h
259 12-10-2015 21:30:00 5.4 C 5.72 g/m*3 5.4 C 1.6 km/h
260 12-10-2015 21:35:00 5.3 C 5.68 g/m*3 5.3 C 1.6 km/h
261 12-10-2015 21:40:00 5.3 C 5.75 g/m*3 5.3 C 0 km/h
262 12-10-2015 21:45:00 5.3 C 5.68 g/m*3 5.3 C 0 km/h
263 12-10-2015 21:50:00 5.3 C 5.68 g/m*3 5.3 C 0 km/h
264 12-10-2015 21:55:00 5.2 C 5.65 g/m*3 5.2 C 0 km/h
265 12-10-2015 22:00:00 5.1 C 5.68 g/m*3 5.1 C 0 km/h
266 12-10-2015 22:05:00 4.9 C 5.6 g/m*3 4.9 C 0 km/h
267 12-10-2015 22:10:00 4.8 C 5.63 g/m*3 4.8 C 0 km/h
268 12-10-2015 22:15:00 4.6 C 5.62 g/m*3 4.6 C 0 km/h
269 12-10-2015 22:20:00 4.5 C 5.59 g/m*3 4.5 C 0 km/h
270 12-10-2015 22:25:00 4.4 C 5.68 g/m*3 4.4 C 0 km/h
271 12-10-2015 22:30:00 4.3 C 5.64 g/m*3 4.3 C 0 km/h
272 12-10-2015 22:35:00 4.2 C 5.61 g/m*3 4.2 C 0 km/h
273 12-10-2015 22:40:00 4 C 5.53 g/m*3 4 C 0 km/h
274 12-10-2015 22:45:00 3.9 C 5.56 g/m*3 3.9 C 0 km/h
275 12-10-2015 22:50:00 3.8 C 5.58 g/m*3 3.8 C 0 km/h
Sensor: Nr:Datum:Temp:Abs-Feuchte:Windchill:Wind:
Aussen-T/F 276 12-10-2015 22:55:00 3.8 C 5.58 g/m*3 3.8 C 0 km/h
277 12-10-2015 23:00:00 3.7 C 5.55 g/m*3 3.7 C 0 km/h
278 12-10-2015 23:05:00 3.7 C 5.55 g/m*3 3.7 C 0 km/h
279 12-10-2015 23:10:00 3.6 C 5.51 g/m*3 3.6 C 0 km/h
280 12-10-2015 23:15:00 3.6 C 5.51 g/m*3 3.6 C 0 km/h
281 12-10-2015 23:20:00 3.6 C 5.57 g/m*3 3.6 C 0 km/h
282 12-10-2015 23:25:00 3.5 C 5.53 g/m*3 3.5 C 0 km/h
283 12-10-2015 23:30:00 3.5 C 5.53 g/m*3 3.5 C 0 km/h
284 12-10-2015 23:35:00 3.4 C 5.5 g/m*3 3.4 C 0 km/h
285 12-10-2015 23:40:00 3.4 C 5.5 g/m*3 3.4 C 0 km/h
286 12-10-2015 23:45:00 3.3 C 5.46 g/m*3 3.3 C 0 km/h
287 12-10-2015 23:50:00 3.3 C 5.46 g/m*3 3.3 C 0 km/h
288 12-10-2015 23:55:00 3.3 C 5.46 g/m*3 3.3 C 0 km/h
289 13-10-2015 00:00:00 3.2 C 5.48 g/m*3 3.2 C 0 km/h
290 13-10-2015 00:05:00 3.2 C 5.48 g/m*3 3.2 C 0 km/h
291 13-10-2015 00:10:00 3.1 C 5.45 g/m*3 3.1 C 0 km/h
292 13-10-2015 00:15:00 3.1 C 5.45 g/m*3 3.1 C 0 km/h
293 13-10-2015 00:20:00 3 C 5.41 g/m*3 3 C 0 km/h
294 13-10-2015 00:25:00 2.9 C 5.37 g/m*3 2.9 C 0 km/h
295 13-10-2015 00:30:00 2.8 C 5.34 g/m*3 2.8 C 0 km/h
296 13-10-2015 00:35:00 2.7 C 5.36 g/m*3 2.7 C 0 km/h
297 13-10-2015 00:40:00 2.6 C 5.32 g/m*3 2.6 C 0 km/h
298 13-10-2015 00:45:00 2.6 C 5.32 g/m*3 2.6 C 0 km/h
299 13-10-2015 00:50:00 2.5 C 5.29 g/m*3 2.5 C 0 km/h
300 13-10-2015 00:55:00 2.5 C 5.29 g/m*3 2.5 C 0 km/h
Sensor: Nr:Datum:Temp:Abs-Feuchte:Windchill:Wind:
Aussen-T/F 301 13-10-2015 01:00:00 2.4 C 5.31 g/m*3 2.4 C 0 km/h
302 13-10-2015 01:05:00 2.4 C 5.31 g/m*3 2.4 C 0 km/h
303 13-10-2015 01:10:00 2.4 C 5.31 g/m*3 2.4 C 0 km/h
304 13-10-2015 01:15:00 2.4 C 5.31 g/m*3 2.4 C 0 km/h
305 13-10-2015 01:20:00 2.4 C 5.31 g/m*3 2.4 C 0 km/h
306 13-10-2015 01:25:00 2.3 C 5.27 g/m*3 2.3 C 0 km/h
307 13-10-2015 01:30:00 2.2 C 5.24 g/m*3 2.2 C 0 km/h
308 13-10-2015 01:35:00 2.2 C 5.24 g/m*3 2.2 C 0 km/h
309 13-10-2015 01:40:00 2.1 C 5.2 g/m*3 2.1 C 0 km/h
310 13-10-2015 01:45:00 2.1 C 5.2 g/m*3 2.1 C 0 km/h
311 13-10-2015 01:50:00 2 C 5.17 g/m*3 2 C 0 km/h
312 13-10-2015 01:55:00 1.9 C 5.19 g/m*3 1.9 C 0 km/h
313 13-10-2015 02:00:00 1.9 C 5.19 g/m*3 1.9 C 0 km/h
314 13-10-2015 02:05:00 1.9 C 5.19 g/m*3 1.9 C 0 km/h
315 13-10-2015 02:10:00 1.8 C 5.15 g/m*3 1.8 C 0 km/h
316 13-10-2015 02:15:00 1.8 C 5.15 g/m*3 1.8 C 0 km/h
317 13-10-2015 02:20:00 1.8 C 5.15 g/m*3 1.8 C 0 km/h
318 13-10-2015 02:25:00 1.7 C 5.12 g/m*3 1.7 C 0 km/h
319 13-10-2015 02:30:00 1.7 C 5.12 g/m*3 1.7 C 0 km/h
320 13-10-2015 02:35:00 1.6 C 5.08 g/m*3 1.6 C 0 km/h
321 13-10-2015 02:40:00 1.6 C 5.08 g/m*3 1.6 C 0 km/h
322 13-10-2015 02:45:00 1.5 C 5.05 g/m*3 1.5 C 0 km/h
323 13-10-2015 02:50:00 1.4 C 5.01 g/m*3 1.4 C 0 km/h
324 13-10-2015 02:55:00 1.4 C 5.01 g/m*3 1.4 C 0 km/h
325 13-10-2015 03:00:00 1.4 C 5.01 g/m*3 1.4 C 0 km/h
Sensor: Nr:Datum:Temp:Abs-Feuchte:Windchill:Wind:
Aussen-T/F 326 13-10-2015 03:05:00 1.3 C 4.98 g/m*3 1.3 C 0 km/h
327 13-10-2015 03:10:00 1.2 C 4.95 g/m*3 1.2 C 0 km/h
328 13-10-2015 03:15:00 1.2 C 5 g/m*3 1.2 C 0 km/h
329 13-10-2015 03:20:00 1.2 C 4.95 g/m*3 1.2 C 0 km/h
330 13-10-2015 03:25:00 1.1 C 4.91 g/m*3 1.1 C 0 km/h
331 13-10-2015 03:30:00 1.1 C 4.96 g/m*3 1.1 C 0 km/h
332 13-10-2015 03:35:00 1.1 C 4.96 g/m*3 1.1 C 0 km/h
333 13-10-2015 03:40:00 1.1 C 4.96 g/m*3 1.1 C 0 km/h
334 13-10-2015 03:45:00 1 C 4.93 g/m*3 1 C 0 km/h
335 13-10-2015 03:50:00 0.9 C 4.85 g/m*3 0.9 C 0 km/h
336 13-10-2015 03:55:00 0.8 C 4.81 g/m*3 0.8 C 0 km/h
337 13-10-2015 04:00:00 0.8 C 4.86 g/m*3 0.8 C 1.6 km/h
338 13-10-2015 04:05:00 0.7 C 4.83 g/m*3 0.7 C 1.6 km/h
339 13-10-2015 04:10:00 0.7 C 4.83 g/m*3 0.7 C 0 km/h
340 13-10-2015 04:15:00 0.6 C 4.8 g/m*3 0.6 C 0 km/h
341 13-10-2015 04:20:00 0.6 C 4.8 g/m*3 0.6 C 0 km/h
342 13-10-2015 04:25:00 0.6 C 4.8 g/m*3 0.6 C 0 km/h
343 13-10-2015 04:30:00 0.5 C 4.76 g/m*3 0.5 C 0 km/h
344 13-10-2015 04:35:00 0.5 C 4.76 g/m*3 0.5 C 0 km/h
345 13-10-2015 04:40:00 0.6 C 4.8 g/m*3 0.6 C 0 km/h
346 13-10-2015 04:45:00 0.6 C 4.8 g/m*3 0.6 C 0 km/h
347 13-10-2015 04:50:00 0.6 C 4.8 g/m*3 0.6 C 0 km/h
348 13-10-2015 04:55:00 0.5 C 4.76 g/m*3 0.5 C 0 km/h
349 13-10-2015 05:00:00 0.5 C 4.76 g/m*3 0.5 C 0 km/h
350 13-10-2015 05:05:00 0.6 C 4.8 g/m*3 0.6 C 0 km/h
Sensor: Nr:Datum:Temp:Abs-Feuchte:Windchill:Wind:
Aussen-T/F 351 13-10-2015 05:10:00 0.6 C 4.8 g/m*3 0.6 C 0 km/h
352 13-10-2015 05:15:00 0.6 C 4.8 g/m*3 0.6 C 1.6 km/h
353 13-10-2015 05:20:00 0.6 C 4.8 g/m*3 0.6 C 0 km/h
354 13-10-2015 05:25:00 0.6 C 4.8 g/m*3 0.6 C 0 km/h
355 13-10-2015 05:30:00 0.5 C 4.76 g/m*3 0.5 C 0 km/h
356 13-10-2015 05:35:00 0.5 C 4.76 g/m*3 0.5 C 0 km/h
357 13-10-2015 05:40:00 0.5 C 4.76 g/m*3 0.5 C 0 km/h
358 13-10-2015 05:45:00 0.5 C 4.76 g/m*3 0.5 C 0 km/h
359 13-10-2015 05:50:00 0.5 C 4.76 g/m*3 0.5 C 0 km/h
360 13-10-2015 05:55:00 0.5 C 4.76 g/m*3 0.5 C 0 km/h
361 13-10-2015 06:00:00 0.5 C 4.76 g/m*3 0.5 C 0 km/h
362 13-10-2015 06:05:00 0.4 C 4.73 g/m*3 0.4 C 1.6 km/h
363 13-10-2015 06:10:00 0.4 C 4.73 g/m*3 0.4 C 0 km/h
364 13-10-2015 06:15:00 0.4 C 4.78 g/m*3 0.4 C 0 km/h
365 13-10-2015 06:20:00 0.4 C 4.78 g/m*3 0.4 C 0 km/h
366 13-10-2015 06:25:00 0.4 C 4.78 g/m*3 0.4 C 0 km/h
367 13-10-2015 06:30:00 0.5 C 4.81 g/m*3 0.5 C 0 km/h
368 13-10-2015 06:35:00 0.6 C 4.85 g/m*3 0.6 C 0 km/h
369 13-10-2015 06:40:00 0.5 C 4.81 g/m*3 0.5 C 0 km/h
370 13-10-2015 06:45:00 0.5 C 4.81 g/m*3 0.5 C 0 km/h
371 13-10-2015 06:50:00 0.5 C 4.81 g/m*3 0.5 C 0 km/h
372 13-10-2015 06:55:00 0.4 C 4.78 g/m*3 0.4 C 0 km/h
373 13-10-2015 07:00:00 0.4 C 4.78 g/m*3 0.4 C 0 km/h
374 13-10-2015 07:05:00 0.4 C 4.78 g/m*3 0.4 C 0 km/h
375 13-10-2015 07:10:00 0.4 C 4.78 g/m*3 0.4 C 0 km/h
Sensor: Nr:Datum:Temp:Abs-Feuchte:Windchill:Wind:
Aussen-T/F 376 13-10-2015 07:15:00 0.4 C 4.78 g/m*3 0.4 C 0 km/h
377 13-10-2015 07:20:00 0.4 C 4.78 g/m*3 0.4 C 1.6 km/h
378 13-10-2015 07:25:00 0.4 C 4.78 g/m*3 0.4 C 0 km/h
379 13-10-2015 07:30:00 0.4 C 4.78 g/m*3 0.4 C 0 km/h
380 13-10-2015 07:35:00 0.5 C 4.81 g/m*3 0.5 C 0 km/h
381 13-10-2015 07:40:00 0.5 C 4.81 g/m*3 0.5 C 0 km/h
382 13-10-2015 07:45:00 0.6 C 4.85 g/m*3 0.6 C 0 km/h
383 13-10-2015 07:50:00 0.6 C 4.85 g/m*3 0.6 C 1.6 km/h
384 13-10-2015 07:55:00 0.6 C 4.85 g/m*3 0.6 C 0 km/h
385 13-10-2015 08:00:00 0.6 C 4.85 g/m*3 0.6 C 0 km/h
386 13-10-2015 08:05:00 0.6 C 4.85 g/m*3 0.6 C 0 km/h
387 13-10-2015 08:10:00 0.7 C 4.88 g/m*3 0.7 C 0 km/h
388 13-10-2015 08:15:00 0.7 C 4.88 g/m*3 0.7 C 1.6 km/h
389 13-10-2015 08:20:00 0.7 C 4.88 g/m*3 0.7 C 0 km/h
390 13-10-2015 08:25:00 0.7 C 4.88 g/m*3 0.7 C 0 km/h
391 13-10-2015 08:30:00 0.8 C 4.91 g/m*3 0.8 C 0 km/h
392 13-10-2015 08:35:00 0.8 C 4.91 g/m*3 0.8 C 0 km/h
393 13-10-2015 08:40:00 0.8 C 4.91 g/m*3 0.8 C 0 km/h
394 13-10-2015 08:45:00 0.8 C 4.91 g/m*3 0.8 C 0 km/h
395 13-10-2015 08:50:00 0.8 C 4.91 g/m*3 0.8 C 0 km/h
396 13-10-2015 08:55:00 0.9 C 4.95 g/m*3 0.9 C 1.6 km/h
397 13-10-2015 09:00:00 0.9 C 4.95 g/m*3 0.9 C 0 km/h
398 13-10-2015 09:05:00 1.1 C 5.02 g/m*3 1.1 C 0 km/h
399 13-10-2015 09:10:00 1.2 C 5.05 g/m*3 1.2 C 0 km/h
400 13-10-2015 09:15:00 1.2 C 5.05 g/m*3 1.2 C 1.6 km/h
Sensor: Nr:Datum:Temp:Abs-Feuchte:Windchill:Wind:
Aussen-T/F 401 13-10-2015 09:20:00 1.2 C 5.05 g/m*3 1.2 C 0 km/h
402 13-10-2015 09:25:00 1.3 C 5.09 g/m*3 1.3 C 0 km/h
403 13-10-2015 09:30:00 1.3 C 5.09 g/m*3 1.3 C 0 km/h
404 13-10-2015 09:35:00 1.3 C 5.09 g/m*3 1.3 C 0 km/h
405 13-10-2015 09:40:00 1.4 C 5.12 g/m*3 1.4 C 1.6 km/h
406 13-10-2015 09:45:00 1.5 C 5.21 g/m*3 1.5 C 0 km/h
407 13-10-2015 09:50:00 1.6 C 5.25 g/m*3 1.6 C 0 km/h
408 13-10-2015 09:55:00 1.6 C 5.19 g/m*3 1.6 C 1.6 km/h
409 13-10-2015 10:00:00 1.7 C 5.23 g/m*3 1.7 C 0 km/h
410 13-10-2015 10:05:00 1.7 C 5.23 g/m*3 1.7 C 0 km/h
411 13-10-2015 10:10:00 1.7 C 5.23 g/m*3 1.7 C 0 km/h
412 13-10-2015 10:15:00 1.8 C 5.26 g/m*3 1.8 C 0 km/h
413 13-10-2015 10:20:00 1.8 C 5.32 g/m*3 1.8 C 1.6 km/h
414 13-10-2015 10:25:00 1.9 C 5.35 g/m*3 1.9 C 0 km/h
415 13-10-2015 10:30:00 2.1 C 5.37 g/m*3 2.1 C 0 km/h
416 13-10-2015 10:35:00 2.2 C 5.46 g/m*3 2.2 C 0 km/h
417 13-10-2015 10:40:00 2.3 C 5.5 g/m*3 2.3 C 0 km/h
418 13-10-2015 10:45:00 2.6 C 5.61 g/m*3 2.6 C 3.2 km/h
419 13-10-2015 10:50:00 2.7 C 5.65 g/m*3 2.7 C 1.6 km/h
420 13-10-2015 10:55:00 2.8 C 5.69 g/m*3 2.8 C 0 km/h
421 13-10-2015 11:00:00 3 C 5.77 g/m*3 3 C 1.6 km/h
422 13-10-2015 11:05:00 3.3 C 5.88 g/m*3 3.3 C 0 km/h
423 13-10-2015 11:10:00 3.7 C 6.04 g/m*3 3.7 C 0 km/h
424 13-10-2015 11:15:00 4.1 C 6.21 g/m*3 4.1 C 0 km/h
425 13-10-2015 11:20:00 4.3 C 6.29 g/m*3 4.3 C 0 km/h
Sensor: Nr:Datum:Temp:Abs-Feuchte:Windchill:Wind:
Aussen-T/F 426 13-10-2015 11:25:00 4.4 C 6.33 g/m*3 4.4 C 0 km/h
427 13-10-2015 11:30:00 4.6 C 6.42 g/m*3 4.6 C 0 km/h
428 13-10-2015 11:35:00 4.7 C 6.46 g/m*3 4.7 C 1.6 km/h
429 13-10-2015 11:40:00 4.9 C 6.48 g/m*3 4.9 C 0 km/h
430 13-10-2015 11:45:00 5.2 C 6.61 g/m*3 5.2 C 1.6 km/h
431 13-10-2015 11:50:00 5.3 C 6.58 g/m*3 5.3 C 1.6 km/h
432 13-10-2015 11:55:00 5.5 C 6.6 g/m*3 5.5 C 0 km/h
433 13-10-2015 12:00:00 5.7 C 6.69 g/m*3 5.7 C 0 km/h
434 13-10-2015 12:05:00 5.8 C 6.66 g/m*3 5.8 C 0 km/h
435 13-10-2015 12:10:00 5.9 C 6.63 g/m*3 5.9 C 0 km/h
436 13-10-2015 12:15:00 6 C 6.6 g/m*3 6 C 0 km/h
437 13-10-2015 12:20:00 6.1 C 6.58 g/m*3 6.1 C 0 km/h
438 13-10-2015 12:25:00 6.3 C 6.59 g/m*3 6.3 C 3.2 km/h
439 13-10-2015 12:30:00 6.4 C 6.63 g/m*3 6.4 C 1.6 km/h
440 13-10-2015 12:35:00 6.6 C 6.57 g/m*3 6.6 C 1.6 km/h
441 13-10-2015 12:40:00 6.7 C 6.53 g/m*3 5.56 C 6.4 km/h
442 13-10-2015 12:45:00 6.8 C 6.5 g/m*3 6.8 C 0 km/h
443 13-10-2015 12:50:00 6.9 C 6.54 g/m*3 6.9 C 0 km/h
444 13-10-2015 12:55:00 7.1 C 6.55 g/m*3 7.1 C 1.6 km/h
445 13-10-2015 13:00:00 7.1 C 6.55 g/m*3 7.1 C 1.6 km/h
446 13-10-2015 13:05:00 7.2 C 6.52 g/m*3 7.2 C 1.6 km/h
447 13-10-2015 13:10:00 7.3 C 6.56 g/m*3 7.3 C 4.8 km/h
448 13-10-2015 13:15:00 7.4 C 6.6 g/m*3 7.4 C 4.8 km/h
449 13-10-2015 13:20:00 7.4 C 6.52 g/m*3 7.4 C 4.8 km/h
450 13-10-2015 13:25:00 7.4 C 6.44 g/m*3 7.4 C 0 km/h
Sensor: Nr:Datum:Temp:Abs-Feuchte:Windchill:Wind:
Aussen-T/F 451 13-10-2015 13:30:00 7.6 C 6.61 g/m*3 7.6 C 3.2 km/h
452 13-10-2015 13:35:00 7.6 C 6.61 g/m*3 7.6 C 3.2 km/h
453 13-10-2015 13:40:00 7.7 C 6.57 g/m*3 7.7 C 0 km/h
454 13-10-2015 13:45:00 7.8 C 6.61 g/m*3 7.8 C 3.2 km/h
455 13-10-2015 13:50:00 7.8 C 6.53 g/m*3 7.8 C 1.6 km/h
456 13-10-2015 13:55:00 7.9 C 6.57 g/m*3 7.9 C 3.2 km/h
457 13-10-2015 14:00:00 7.9 C 6.65 g/m*3 6.94 C 6.4 km/h
458 13-10-2015 14:05:00 8 C 6.61 g/m*3 8 C 3.2 km/h
459 13-10-2015 14:10:00 8.1 C 6.66 g/m*3 8.1 C 3.2 km/h
460 13-10-2015 14:15:00 8.1 C 6.66 g/m*3 8.1 C 3.2 km/h
461 13-10-2015 14:20:00 8.1 C 6.57 g/m*3 8.1 C 3.2 km/h
462 13-10-2015 14:25:00 8.2 C 6.78 g/m*3 8.2 C 0 km/h
463 13-10-2015 14:30:00 8.2 C 6.7 g/m*3 8.2 C 1.6 km/h
464 13-10-2015 14:35:00 8.3 C 6.66 g/m*3 8.3 C 1.6 km/h
465 13-10-2015 14:40:00 8.3 C 6.57 g/m*3 8.3 C 0 km/h
466 13-10-2015 14:45:00 8.4 C 6.79 g/m*3 8.4 C 3.2 km/h
467 13-10-2015 14:50:00 8.6 C 6.79 g/m*3 8.6 C 1.6 km/h
468 13-10-2015 14:55:00 8.6 C 6.7 g/m*3 8.6 C 4.8 km/h
469 13-10-2015 15:00:00 8.5 C 6.74 g/m*3 8.5 C 3.2 km/h
470 13-10-2015 15:05:00 8.6 C 6.79 g/m*3 8.6 C 4.8 km/h
471 13-10-2015 15:10:00 8.7 C 6.75 g/m*3 8.7 C 4.8 km/h
472 13-10-2015 15:15:00 8.8 C 6.7 g/m*3 8.8 C 4.8 km/h
473 13-10-2015 15:20:00 8.9 C 6.75 g/m*3 8.9 C 3.2 km/h
474 13-10-2015 15:25:00 9 C 6.79 g/m*3 9 C 1.6 km/h
475 13-10-2015 15:30:00 9.1 C 6.74 g/m*3 9.1 C 0 km/h
Sensor: Nr:Datum:Temp:Abs-Feuchte:Windchill:Wind:
Aussen-T/F 476 13-10-2015 15:35:00 9.1 C 6.83 g/m*3 9.1 C 3.2 km/h
477 13-10-2015 15:40:00 9.1 C 6.92 g/m*3 9.1 C 3.2 km/h
478 13-10-2015 15:45:00 9.2 C 6.97 g/m*3 9.2 C 1.6 km/h
479 13-10-2015 15:50:00 9.2 C 6.97 g/m*3 9.2 C 1.6 km/h
480 13-10-2015 15:55:00 9.2 C 6.88 g/m*3 9.2 C 1.6 km/h
481 13-10-2015 16:00:00 9.2 C 6.79 g/m*3 9.2 C 1.6 km/h
482 13-10-2015 16:05:00 9.2 C 6.97 g/m*3 9.2 C 0 km/h
483 13-10-2015 16:10:00 9.2 C 7.05 g/m*3 9.2 C 0 km/h
484 13-10-2015 16:15:00 9.1 C 7.01 g/m*3 9.1 C 0 km/h
485 13-10-2015 16:20:00 8.9 C 7.1 g/m*3 8.9 C 0 km/h
486 13-10-2015 16:25:00 8.8 C 7.14 g/m*3 8.8 C 0 km/h
487 13-10-2015 16:30:00 8.7 C 7.18 g/m*3 8.7 C 0 km/h
488 13-10-2015 16:35:00 8.6 C 7.22 g/m*3 8.6 C 0 km/h
489 13-10-2015 16:40:00 8.4 C 7.04 g/m*3 7.52 C 6.4 km/h
490 13-10-2015 16:45:00 8.4 C 7.04 g/m*3 8.4 C 4.8 km/h
491 13-10-2015 16:50:00 8.4 C 6.96 g/m*3 7.52 C 6.4 km/h
492 13-10-2015 16:55:00 8.4 C 6.87 g/m*3 6.78 C 9.7 km/h
493 13-10-2015 17:00:00 8.3 C 6.83 g/m*3 6.37 C 11.3 km/h
494 13-10-2015 17:05:00 8.3 C 6.83 g/m*3 7.41 C 6.4 km/h
495 13-10-2015 17:10:00 8.2 C 6.87 g/m*3 6.87 C 8.1 km/h
496 13-10-2015 17:15:00 8.2 C 6.87 g/m*3 6.54 C 9.7 km/h
497 13-10-2015 17:20:00 8.1 C 6.82 g/m*3 6.42 C 9.7 km/h
498 13-10-2015 17:25:00 8.1 C 6.91 g/m*3 6.42 C 9.7 km/h
499 13-10-2015 17:30:00 8 C 6.86 g/m*3 6.3 C 9.7 km/h
500 13-10-2015 17:35:00 7.9 C 6.82 g/m*3 6.94 C 6.4 km/h
Sensor: Nr:Datum:Temp:Abs-Feuchte:Windchill:Wind:
Aussen-T/F 501 13-10-2015 17:40:00 7.9 C 6.82 g/m*3 6.52 C 8.1 km/h
502 13-10-2015 17:45:00 7.8 C 6.77 g/m*3 6.83 C 6.4 km/h
503 13-10-2015 17:50:00 7.8 C 6.86 g/m*3 7.8 C 4.8 km/h
504 13-10-2015 17:55:00 7.7 C 6.73 g/m*3 5.94 C 9.7 km/h
505 13-10-2015 18:00:00 7.7 C 6.81 g/m*3 7.7 C 3.2 km/h
506 13-10-2015 18:05:00 7.6 C 6.77 g/m*3 7.6 C 3.2 km/h
507 13-10-2015 18:10:00 7.6 C 6.85 g/m*3 7.6 C 0 km/h
508 13-10-2015 18:15:00 7.6 C 6.93 g/m*3 6.6 C 6.4 km/h
509 13-10-2015 18:20:00 7.5 C 6.88 g/m*3 7.5 C 3.2 km/h
510 13-10-2015 18:25:00 7.4 C 6.76 g/m*3 7.4 C 3.2 km/h
511 13-10-2015 18:30:00 7.4 C 6.68 g/m*3 7.4 C 4.8 km/h
512 13-10-2015 18:35:00 7.3 C 6.72 g/m*3 7.3 C 4.8 km/h
513 13-10-2015 18:40:00 7.3 C 6.64 g/m*3 5.81 C 8.1 km/h
514 13-10-2015 18:45:00 7.3 C 6.72 g/m*3 7.3 C 1.6 km/h
515 13-10-2015 18:50:00 7.2 C 6.67 g/m*3 6.13 C 6.4 km/h
516 13-10-2015 18:55:00 7.2 C 6.67 g/m*3 6.13 C 6.4 km/h
517 13-10-2015 19:00:00 7.2 C 6.67 g/m*3 7.2 C 3.2 km/h
518 13-10-2015 19:05:00 7.2 C 6.67 g/m*3 7.2 C 3.2 km/h
519 13-10-2015 19:10:00 7.1 C 6.63 g/m*3 7.1 C 4.8 km/h
520 13-10-2015 19:15:00 7.1 C 6.63 g/m*3 7.1 C 4.8 km/h
521 13-10-2015 19:20:00 7.1 C 6.63 g/m*3 6.02 C 6.4 km/h
522 13-10-2015 19:25:00 7.1 C 6.63 g/m*3 6.02 C 6.4 km/h
523 13-10-2015 19:30:00 7 C 6.66 g/m*3 5.9 C 6.4 km/h
524 13-10-2015 19:35:00 7 C 6.66 g/m*3 5.9 C 6.4 km/h
525 13-10-2015 19:40:00 7 C 6.66 g/m*3 7 C 4.8 km/h
Sensor: Nr:Datum:Temp:Abs-Feuchte:Windchill:Wind:
Aussen-T/F 526 13-10-2015 19:45:00 6.9 C 6.62 g/m*3 6.9 C 1.6 km/h
527 13-10-2015 19:50:00 6.9 C 6.62 g/m*3 6.9 C 3.2 km/h
528 13-10-2015 19:55:00 6.9 C 6.62 g/m*3 5.79 C 6.4 km/h
529 13-10-2015 20:00:00 6.9 C 6.62 g/m*3 6.9 C 1.6 km/h
530 13-10-2015 20:05:00 6.9 C 6.62 g/m*3 6.9 C 4.8 km/h
531 13-10-2015 20:10:00 6.9 C 6.62 g/m*3 6.9 C 3.2 km/h
532 13-10-2015 20:15:00 6.8 C 6.58 g/m*3 5.67 C 6.4 km/h
533 13-10-2015 20:20:00 6.8 C 6.58 g/m*3 6.8 C 3.2 km/h
534 13-10-2015 20:25:00 6.8 C 6.65 g/m*3 5.67 C 6.4 km/h
535 13-10-2015 20:30:00 6.8 C 6.65 g/m*3 5.67 C 6.4 km/h
536 13-10-2015 20:35:00 6.7 C 6.61 g/m*3 6.7 C 3.2 km/h
537 13-10-2015 20:40:00 6.7 C 6.61 g/m*3 6.7 C 4.8 km/h
538 13-10-2015 20:45:00 6.7 C 6.61 g/m*3 6.7 C 3.2 km/h
539 13-10-2015 20:50:00 6.6 C 6.64 g/m*3 6.6 C 3.2 km/h
540 13-10-2015 20:55:00 6.6 C 6.72 g/m*3 6.6 C 0 km/h
541 13-10-2015 21:00:00 6.5 C 6.67 g/m*3 6.5 C 0 km/h
542 13-10-2015 21:05:00 6.5 C 6.67 g/m*3 6.5 C 0 km/h
543 13-10-2015 21:10:00 6.4 C 6.71 g/m*3 6.4 C 0 km/h
544 13-10-2015 21:15:00 6.4 C 6.71 g/m*3 6.4 C 0 km/h
545 13-10-2015 21:20:00 6.3 C 6.74 g/m*3 6.3 C 0 km/h
546 13-10-2015 21:25:00 6.2 C 6.69 g/m*3 6.2 C 0 km/h
547 13-10-2015 21:30:00 6.1 C 6.72 g/m*3 6.1 C 0 km/h
548 13-10-2015 21:35:00 6.1 C 6.72 g/m*3 6.1 C 0 km/h
549 13-10-2015 21:40:00 6 C 6.68 g/m*3 6 C 0 km/h
550 13-10-2015 21:45:00 5.9 C 6.63 g/m*3 5.9 C 0 km/h
Sensor: Nr:Datum:Temp:Abs-Feuchte:Windchill:Wind:
Aussen-T/F 551 13-10-2015 21:50:00 5.9 C 6.71 g/m*3 5.9 C 0 km/h
552 13-10-2015 21:55:00 5.8 C 6.66 g/m*3 5.8 C 0 km/h
553 13-10-2015 22:00:00 5.8 C 6.66 g/m*3 5.8 C 0 km/h
554 13-10-2015 22:05:00 5.7 C 6.62 g/m*3 5.7 C 0 km/h
555 13-10-2015 22:10:00 5.6 C 6.57 g/m*3 5.6 C 0 km/h
556 13-10-2015 22:15:00 5.6 C 6.57 g/m*3 5.6 C 0 km/h
557 13-10-2015 22:20:00 5.5 C 6.53 g/m*3 5.5 C 0 km/h
558 13-10-2015 22:25:00 5.5 C 6.53 g/m*3 5.5 C 0 km/h
559 13-10-2015 22:30:00 5.4 C 6.49 g/m*3 5.4 C 0 km/h
560 13-10-2015 22:35:00 5.3 C 6.45 g/m*3 5.3 C 1.6 km/h
561 13-10-2015 22:40:00 5.3 C 6.38 g/m*3 5.3 C 1.6 km/h
562 13-10-2015 22:45:00 5.2 C 6.33 g/m*3 5.2 C 3.2 km/h
563 13-10-2015 22:50:00 5.1 C 6.29 g/m*3 5.1 C 1.6 km/h
564 13-10-2015 22:55:00 5 C 6.25 g/m*3 5 C 1.6 km/h
565 13-10-2015 23:00:00 5 C 6.25 g/m*3 5 C 0 km/h
566 13-10-2015 23:05:00 5 C 6.25 g/m*3 5 C 0 km/h
567 13-10-2015 23:10:00 4.9 C 6.28 g/m*3 4.9 C 0 km/h
568 13-10-2015 23:15:00 4.9 C 6.28 g/m*3 4.9 C 0 km/h
569 13-10-2015 23:20:00 4.9 C 6.28 g/m*3 4.9 C 0 km/h
570 13-10-2015 23:25:00 4.8 C 6.24 g/m*3 4.8 C 0 km/h
571 13-10-2015 23:30:00 4.8 C 6.24 g/m*3 4.8 C 0 km/h
572 13-10-2015 23:35:00 4.8 C 6.24 g/m*3 4.8 C 3.2 km/h
573 13-10-2015 23:40:00 4.8 C 6.3 g/m*3 3.36 C 6.4 km/h
574 13-10-2015 23:45:00 4.8 C 6.24 g/m*3 3.36 C 6.4 km/h
575 13-10-2015 23:50:00 4.8 C 6.24 g/m*3 3.36 C 6.4 km/h
Sensor: Nr:Datum:Temp:Abs-Feuchte:Windchill:Wind:
Aussen-T/F 576 13-10-2015 23:55:00 4.7 C 6.19 g/m*3 3.25 C 6.4 km/h

Legende:
   Min
   Max


Maximal/Minimal-Werte vom 12.10.2015 - 13.10.2015

Sensor Min Max Avg
Temp
(Aussen-T/F)
0.4 °C
13-10-2015  06:05:00
11.6 °C
12-10-2015  16:25:00
4.81 °C
Abs-Feuchte
(Aussen-T/F)
4.73 g/m*3
13-10-2015  06:05:00
7.71 g/m*3
12-10-2015  17:15:00
5.8 g/m*3
Windchill
(Aussen-T/F)
0.4 C
13-10-2015  06:05:00
11.6 C
12-10-2015  16:25:00
4.72 C

Die Daten stammen von einer Davis Vantage Pro 2 Wetter-Station und werden unter Linux mit der Software wview2wettercgi und aufbereitet. Alle Angaben erfolgen ohne Gewähr für ihre Vollständigkeit oder Richtigkeit.
Kontakt: Rainer Krienke krienke@uni-koblenz.de . Meine Webseiten an der Uni Koblenz oder privat.
Version: $Revision: 0.78 $